createdAt,value
2022-11-28T00:01:37.600Z,0.22
2022-11-28T00:04:07.874Z,0.20
2022-11-28T00:06:38.501Z,0.20
2022-11-28T00:09:07.273Z,0.20
2022-11-28T00:11:35.639Z,0.20
2022-11-28T00:14:03.802Z,0.20
2022-11-28T00:16:31.893Z,0.22
2022-11-28T00:19:02.134Z,0.20
2022-11-28T00:21:32.323Z,0.28
2022-11-28T00:24:01.283Z,0.20
2022-11-28T00:26:32.128Z,0.20
2022-11-28T00:29:02.969Z,0.20
2022-11-28T00:31:33.812Z,0.30
2022-11-28T00:34:02.826Z,0.30
2022-11-28T00:36:32.385Z,0.30
2022-11-28T00:39:00.493Z,0.20
2022-11-28T00:41:30.995Z,0.30
2022-11-28T00:43:59.311Z,0.30
2022-11-28T00:46:27.964Z,0.20
2022-11-28T00:48:56.189Z,0.20
2022-11-28T00:51:25.981Z,0.20
2022-11-28T00:53:57.761Z,0.30
2022-11-28T00:56:27.677Z,0.30
2022-11-28T00:58:56.093Z,0.30
2022-11-28T01:01:27.003Z,0.20
2022-11-28T01:03:57.120Z,0.20
2022-11-28T01:06:28.243Z,0.30
2022-11-28T01:09:00.074Z,0.30
2022-11-28T01:11:28.543Z,0.30
2022-11-28T01:13:58.000Z,0.30
2022-11-28T01:16:26.369Z,0.30
2022-11-28T01:18:54.716Z,0.30
2022-11-28T01:21:23.124Z,0.30
2022-11-28T01:23:51.142Z,0.30
2022-11-28T01:26:23.833Z,0.30
2022-11-28T01:28:52.350Z,0.30
2022-11-28T01:31:22.937Z,0.30
2022-11-28T01:33:51.626Z,0.28
2022-11-28T01:36:20.964Z,0.30
2022-11-28T01:38:49.388Z,0.20
2022-11-28T01:41:19.401Z,0.20
2022-11-28T01:44:05.002Z,0.30
2022-11-28T01:46:34.127Z,0.40
2022-11-28T01:49:07.429Z,0.30
2022-11-28T01:51:36.740Z,0.30
2022-11-28T01:54:05.258Z,0.30
2022-11-28T01:56:41.236Z,0.30
2022-11-28T01:59:12.673Z,0.30
2022-11-28T02:01:41.014Z,0.30
2022-11-28T02:04:10.205Z,0.38
2022-11-28T02:06:38.561Z,0.30
2022-11-28T02:09:10.682Z,0.30
2022-11-28T02:12:11.415Z,0.30
2022-11-28T02:15:07.874Z,0.30
2022-11-28T02:20:49.687Z,0.30
2022-11-28T02:23:23.407Z,0.40
2022-11-28T02:26:23.451Z,0.30
2022-11-28T02:29:24.306Z,0.30
2022-11-28T02:32:14.926Z,0.30
2022-11-28T02:34:51.951Z,0.30
2022-11-28T02:37:27.431Z,0.30
2022-11-28T02:40:08.019Z,0.30
2022-11-28T02:42:45.028Z,0.22
2022-11-28T02:45:19.374Z,0.30
2022-11-28T02:47:51.708Z,0.30
2022-11-28T02:50:26.146Z,0.25
2022-11-28T02:52:57.820Z,0.20
2022-11-28T02:55:27.586Z,0.30
2022-11-28T02:57:56.303Z,0.20
2022-11-28T03:00:29.393Z,0.30
2022-11-28T03:03:15.419Z,0.30
2022-11-28T03:08:26.492Z,0.20
2022-11-28T03:11:03.433Z,0.20
2022-11-28T03:13:39.806Z,0.20
2022-11-28T03:16:15.667Z,0.20
2022-11-28T03:18:53.367Z,0.30
2022-11-28T03:21:26.851Z,0.28
2022-11-28T03:24:02.125Z,0.30
2022-11-28T03:26:37.768Z,0.30
2022-11-28T03:31:40.591Z,0.20
2022-11-28T03:34:15.059Z,0.30
2022-11-28T03:36:48.326Z,0.30
2022-11-28T03:39:21.863Z,0.30
2022-11-28T03:41:55.136Z,0.30
2022-11-28T03:44:29.117Z,0.30
2022-11-28T03:47:01.461Z,0.20
2022-11-28T03:49:35.487Z,0.30
2022-11-28T03:52:06.658Z,0.25
2022-11-28T03:54:37.950Z,0.30
2022-11-28T03:57:12.444Z,0.28
2022-11-28T03:59:45.306Z,0.30
2022-11-28T04:02:21.960Z,0.30
2022-11-28T04:04:58.917Z,0.40
2022-11-28T04:07:32.946Z,0.30
2022-11-28T04:10:07.344Z,0.30
2022-11-28T04:12:44.871Z,0.30
2022-11-28T04:15:19.093Z,0.28
2022-11-28T04:17:54.952Z,0.30
2022-11-28T04:20:31.275Z,0.30
2022-11-28T04:23:04.566Z,0.25
2022-11-28T04:25:38.240Z,0.20
2022-11-28T04:28:12.396Z,0.30
2022-11-28T04:30:43.638Z,0.30
2022-11-28T04:33:14.341Z,0.30
2022-11-28T04:35:47.776Z,0.30
2022-11-28T04:38:16.371Z,0.30
2022-11-28T04:40:50.535Z,0.30
2022-11-28T04:43:24.066Z,0.20
2022-11-28T04:45:55.985Z,0.30
2022-11-28T04:48:24.437Z,0.20
2022-11-28T04:51:00.682Z,0.25
2022-11-28T04:53:35.660Z,0.20
2022-11-28T04:56:09.966Z,0.30
2022-11-28T04:58:42.028Z,0.22
2022-11-28T05:01:16.094Z,0.20
2022-11-28T05:03:44.657Z,0.20
2022-11-28T05:06:25.207Z,0.25
2022-11-28T05:08:53.270Z,0.28
2022-11-28T05:11:21.628Z,0.30
2022-11-28T05:13:49.695Z,0.20
2022-11-28T05:16:18.328Z,0.20
2022-11-28T05:18:46.799Z,0.20
2022-11-28T05:21:16.188Z,0.20
2022-11-28T05:23:46.163Z,0.20
2022-11-28T05:26:16.157Z,0.20
2022-11-28T05:28:45.878Z,0.20
2022-11-28T05:31:14.976Z,0.20
2022-11-28T05:33:43.131Z,0.20
2022-11-28T05:36:13.737Z,0.20
2022-11-28T05:38:44.567Z,0.10
2022-11-28T05:41:20.508Z,0.20
2022-11-28T05:43:48.479Z,0.20
2022-11-28T05:46:17.022Z,0.20
2022-11-28T05:48:45.341Z,0.15
2022-11-28T05:51:13.427Z,0.20
2022-11-28T05:53:42.822Z,0.20
2022-11-28T05:56:11.774Z,0.20
2022-11-28T05:58:40.218Z,0.20
2022-11-28T06:01:12.666Z,0.20
2022-11-28T06:03:40.811Z,0.20
2022-11-28T06:06:14.470Z,0.20
2022-11-28T06:08:44.865Z,0.20
2022-11-28T06:11:14.844Z,0.20
2022-11-28T06:13:43.203Z,0.20
2022-11-28T06:16:12.474Z,0.15
2022-11-28T06:18:41.397Z,0.20
2022-11-28T06:21:11.251Z,0.20
2022-11-28T06:23:40.339Z,0.20
2022-11-28T06:26:12.577Z,0.20
2022-11-28T06:28:41.634Z,0.20
2022-11-28T06:31:12.411Z,0.20
2022-11-28T06:33:40.625Z,0.10
2022-11-28T06:36:12.451Z,0.20
2022-11-28T06:38:40.676Z,0.20
2022-11-28T06:41:13.274Z,0.20
2022-11-28T06:43:41.313Z,0.20
2022-11-28T06:46:15.983Z,0.10
2022-11-28T06:48:44.664Z,0.15
2022-11-28T06:51:13.784Z,0.20
2022-11-28T06:53:42.237Z,0.20
2022-11-28T06:56:15.137Z,0.20
2022-11-28T06:58:44.196Z,0.20
2022-11-28T07:01:14.129Z,0.20
2022-11-28T07:03:43.799Z,0.20
2022-11-28T07:06:13.057Z,0.20
2022-11-28T07:08:42.116Z,0.20
2022-11-28T07:11:14.520Z,0.20
2022-11-28T07:13:43.710Z,0.20
2022-11-28T07:16:16.390Z,0.20
2022-11-28T07:18:45.355Z,0.20
2022-11-28T07:21:15.058Z,0.20
2022-11-28T07:23:43.527Z,0.20
2022-11-28T07:26:15.030Z,0.13
2022-11-28T07:28:43.920Z,0.20
2022-11-28T07:31:13.680Z,0.20
2022-11-28T07:33:44.119Z,0.20
2022-11-28T07:36:14.997Z,0.20
2022-11-28T07:38:43.217Z,0.10
2022-11-28T07:41:14.693Z,0.20
2022-11-28T07:43:46.218Z,0.20
2022-11-28T07:46:17.041Z,0.20
2022-11-28T07:48:45.830Z,0.20
2022-11-28T07:51:16.908Z,0.15
2022-11-28T07:53:46.027Z,0.20
2022-11-28T07:56:17.796Z,0.20
2022-11-28T07:58:48.051Z,0.10
2022-11-28T08:01:18.645Z,0.20
2022-11-28T08:03:48.086Z,0.20
2022-11-28T08:06:18.291Z,0.20
2022-11-28T08:08:47.118Z,0.10
2022-11-28T08:11:18.823Z,0.10
2022-11-28T08:13:47.150Z,0.10
2022-11-28T08:16:18.106Z,0.10
2022-11-28T08:18:47.162Z,0.10
2022-11-28T08:21:17.679Z,0.10
2022-11-28T08:23:46.623Z,0.20
2022-11-28T08:26:17.815Z,0.20
2022-11-28T08:28:46.349Z,0.20
2022-11-28T08:31:16.136Z,0.20
2022-11-28T08:33:45.041Z,0.20
2022-11-28T08:36:14.834Z,0.10
2022-11-28T08:38:49.903Z,0.20
2022-11-28T08:41:32.627Z,0.10
2022-11-28T08:44:00.635Z,0.20
2022-11-28T08:46:28.755Z,0.20
2022-11-28T08:48:56.843Z,0.20
2022-11-28T08:51:25.119Z,0.20
2022-11-28T08:53:59.105Z,0.10
2022-11-28T08:56:27.707Z,0.20
2022-11-28T08:58:57.385Z,0.20
2022-11-28T09:01:27.645Z,0.10
2022-11-28T09:03:57.130Z,0.20
2022-11-28T09:06:26.261Z,0.20
2022-11-28T09:08:54.962Z,0.20
2022-11-28T09:11:24.617Z,0.20
2022-11-28T09:13:52.920Z,0.20
2022-11-28T09:16:22.592Z,0.17
2022-11-28T09:18:51.181Z,0.10
2022-11-28T09:21:19.571Z,0.20
2022-11-28T09:23:47.924Z,0.20
2022-11-28T09:26:18.049Z,0.20
2022-11-28T09:28:46.912Z,0.10
2022-11-28T09:31:16.367Z,0.13
2022-11-28T09:33:46.348Z,0.10
2022-11-28T09:36:16.086Z,0.13
2022-11-28T09:38:44.326Z,0.20
2022-11-28T09:41:32.921Z,0.20
2022-11-28T09:44:05.291Z,0.20
2022-11-28T09:46:37.026Z,0.13
2022-11-28T09:49:22.547Z,0.13
2022-11-28T09:51:54.314Z,0.20
2022-11-28T09:54:29.618Z,0.10
2022-11-28T09:57:00.052Z,0.20
2022-11-28T09:59:30.086Z,0.20
2022-11-28T10:02:06.845Z,0.20
2022-11-28T10:04:42.549Z,0.10
2022-11-28T10:09:56.743Z,0.10
2022-11-28T10:12:38.308Z,0.20
2022-11-28T10:15:23.721Z,0.10
2022-11-28T10:17:59.765Z,0.20
2022-11-28T10:20:33.508Z,0.10
2022-11-28T10:23:07.751Z,0.10
2022-11-28T10:25:40.509Z,0.10
2022-11-28T10:28:14.433Z,0.10
2022-11-28T10:30:48.215Z,0.10
2022-11-28T10:33:24.127Z,0.10
2022-11-28T10:35:56.957Z,0.10
2022-11-28T10:38:27.828Z,0.10
2022-11-28T10:41:02.598Z,0.10
2022-11-28T10:43:37.507Z,0.10
2022-11-28T10:46:30.182Z,0.10
2022-11-28T10:49:05.787Z,0.10
2022-11-28T10:51:46.878Z,0.10
2022-11-28T10:54:30.831Z,0.10
2022-11-28T10:57:08.123Z,0.03
2022-11-28T10:59:51.157Z,0.10
2022-11-28T11:02:22.413Z,0.10
2022-11-28T11:04:50.574Z,0.10
2022-11-28T11:07:29.758Z,0.00
2022-11-28T11:10:02.129Z,0.10
2022-11-28T11:12:33.713Z,0.10
2022-11-28T11:15:17.124Z,0.10
2022-11-28T11:17:45.383Z,0.05
2022-11-28T11:20:29.085Z,0.00
2022-11-28T11:23:00.085Z,0.10
2022-11-28T11:25:30.324Z,0.10
2022-11-28T11:28:01.055Z,0.10
2022-11-28T11:30:32.973Z,0.05
2022-11-28T11:33:03.135Z,0.08
2022-11-28T11:35:35.308Z,0.05
2022-11-28T11:38:19.872Z,0.00
2022-11-28T11:40:48.675Z,0.00
2022-11-28T11:43:27.263Z,0.00
2022-11-28T11:46:12.535Z,0.10
2022-11-28T11:48:43.361Z,0.10
2022-11-28T11:51:27.169Z,0.00
2022-11-28T11:54:05.899Z,0.10
2022-11-28T11:56:38.943Z,0.10
2022-11-28T11:59:18.906Z,0.10
2022-11-28T12:01:50.410Z,0.10
2022-11-28T12:04:44.295Z,0.10
2022-11-28T12:07:23.444Z,0.10
2022-11-28T12:09:55.107Z,0.10
2022-11-28T12:12:25.259Z,0.10
2022-11-28T12:14:53.706Z,0.10
2022-11-28T12:17:48.915Z,0.10
2022-11-28T12:20:43.009Z,0.10
2022-11-28T12:23:34.344Z,0.10
2022-11-28T12:26:13.725Z,0.10
2022-11-28T12:28:53.599Z,0.10
2022-11-28T12:31:29.080Z,0.10
2022-11-28T12:34:08.550Z,0.00
2022-11-28T12:36:40.582Z,0.10
2022-11-28T12:39:21.415Z,0.10
2022-11-28T12:42:12.469Z,0.20
2022-11-28T12:44:54.356Z,0.10
2022-11-28T12:47:35.379Z,0.10
2022-11-28T12:50:17.977Z,0.20
2022-11-28T12:52:57.100Z,0.10
2022-11-28T12:55:35.830Z,0.13
2022-11-28T12:58:12.324Z,0.10
2022-11-28T13:00:51.667Z,0.10
2022-11-28T13:03:31.442Z,0.10
2022-11-28T13:06:10.936Z,0.17
2022-11-28T13:09:14.849Z,0.20
2022-11-28T13:11:56.969Z,0.20
2022-11-28T13:14:37.437Z,0.10
2022-11-28T13:17:19.009Z,0.10
2022-11-28T13:19:53.751Z,0.10
2022-11-28T13:22:25.260Z,0.20
2022-11-28T13:25:01.675Z,0.10
2022-11-28T13:27:37.936Z,0.10
2022-11-28T13:30:17.986Z,0.10
2022-11-28T13:32:49.357Z,0.20
2022-11-28T13:35:19.666Z,0.10
2022-11-28T13:40:46.966Z,0.10
2022-11-28T13:43:21.202Z,0.13
2022-11-28T13:45:52.640Z,0.10
2022-11-28T13:51:41.906Z,0.20
2022-11-28T13:54:45.099Z,0.10
2022-11-28T13:57:26.179Z,0.20
2022-11-28T13:59:58.468Z,0.20
2022-11-28T14:02:41.855Z,0.10
2022-11-28T14:05:26.518Z,0.10
2022-11-28T14:07:56.394Z,0.20
2022-11-28T14:10:38.719Z,0.20
2022-11-28T14:13:28.246Z,0.13
2022-11-28T14:16:07.798Z,0.20
2022-11-28T14:18:57.539Z,0.20
2022-11-28T14:21:33.695Z,0.20
2022-11-28T14:24:12.158Z,0.10
2022-11-28T14:26:43.092Z,0.20
2022-11-28T14:29:22.314Z,0.20
2022-11-28T14:32:14.148Z,0.20
2022-11-28T14:34:45.841Z,0.20
2022-11-28T14:37:53.070Z,0.10
2022-11-28T14:43:27.599Z,0.20
2022-11-28T14:46:24.440Z,0.17
2022-11-28T14:49:23.471Z,0.20
2022-11-28T14:52:38.529Z,0.20
2022-11-28T14:55:20.595Z,0.20
2022-11-28T14:58:00.298Z,0.20
2022-11-28T15:00:32.466Z,0.20
2022-11-28T15:03:18.702Z,0.20
2022-11-28T15:05:48.988Z,0.20
2022-11-28T15:08:45.534Z,0.20
2022-11-28T15:11:42.507Z,0.20
2022-11-28T15:14:21.010Z,0.20
2022-11-28T15:16:53.868Z,0.20
2022-11-28T15:19:25.990Z,0.20
2022-11-28T15:21:56.166Z,0.20
2022-11-28T15:24:31.491Z,0.20
2022-11-28T15:29:54.506Z,0.20
2022-11-28T15:32:23.508Z,0.20
2022-11-28T15:35:00.195Z,0.20
2022-11-28T15:37:32.624Z,0.20
2022-11-28T15:40:04.288Z,0.20
2022-11-28T15:42:34.371Z,0.20
2022-11-28T15:45:09.588Z,0.20
2022-11-28T15:47:38.961Z,0.20
2022-11-28T15:50:18.266Z,0.20
2022-11-28T15:52:55.053Z,0.20
2022-11-28T15:55:25.786Z,0.20
2022-11-28T15:58:19.617Z,0.20
2022-11-28T16:00:54.763Z,0.20
2022-11-28T16:03:27.385Z,0.20
2022-11-28T16:05:57.094Z,0.20
2022-11-28T16:08:31.450Z,0.20
2022-11-28T16:11:03.110Z,0.10
2022-11-28T16:13:33.806Z,0.15
2022-11-28T16:16:04.226Z,0.10
2022-11-28T16:18:32.833Z,0.20
2022-11-28T16:21:03.044Z,0.20
2022-11-28T16:23:34.404Z,0.20
2022-11-28T16:26:07.218Z,0.20
2022-11-28T16:28:38.017Z,0.10
2022-11-28T16:31:12.605Z,0.20
2022-11-28T16:33:42.830Z,0.15
2022-11-28T16:36:21.678Z,0.13
2022-11-28T16:38:51.863Z,0.20
2022-11-28T16:41:24.018Z,0.10
2022-11-28T16:43:56.528Z,0.20
2022-11-28T16:46:27.158Z,0.20
2022-11-28T16:48:57.534Z,0.20
2022-11-28T16:51:31.349Z,0.20
2022-11-28T16:54:01.236Z,0.20
2022-11-28T16:56:45.489Z,0.10
2022-11-28T16:59:16.015Z,0.20
2022-11-28T17:01:45.466Z,0.10
2022-11-28T17:04:21.945Z,0.13
2022-11-28T17:06:51.013Z,0.17
2022-11-28T17:09:19.596Z,0.20
2022-11-28T17:11:55.656Z,0.20
2022-11-28T17:14:24.134Z,0.20
2022-11-28T17:16:52.336Z,0.20
2022-11-28T17:19:20.486Z,0.10
2022-11-28T17:21:51.093Z,0.20
2022-11-28T17:24:21.050Z,0.20
2022-11-28T17:26:51.707Z,0.20
2022-11-28T17:29:20.350Z,0.20
2022-11-28T17:31:49.513Z,0.20
2022-11-28T17:34:19.639Z,0.20
2022-11-28T17:36:48.729Z,0.20
2022-11-28T17:39:18.630Z,0.20
2022-11-28T17:41:46.969Z,0.20
2022-11-28T17:44:42.978Z,0.20
2022-11-28T17:47:11.268Z,0.30
2022-11-28T17:49:44.660Z,0.10
2022-11-28T17:52:14.350Z,0.20
2022-11-28T17:54:42.598Z,0.20
2022-11-28T17:57:11.140Z,0.10
2022-11-28T17:59:40.014Z,0.20
2022-11-28T18:02:12.070Z,0.20
2022-11-28T18:04:40.420Z,0.20
2022-11-28T18:07:09.196Z,0.20
2022-11-28T18:09:37.386Z,0.20
2022-11-28T18:12:06.215Z,0.20
2022-11-28T18:14:39.442Z,0.20
2022-11-28T18:17:09.760Z,0.20
2022-11-28T18:19:37.795Z,0.10
2022-11-28T18:22:06.439Z,0.20
2022-11-28T18:24:34.950Z,0.20
2022-11-28T18:27:03.640Z,0.17
2022-11-28T18:29:33.646Z,0.20
2022-11-28T18:32:02.066Z,0.20
2022-11-28T18:34:31.918Z,0.20
2022-11-28T18:37:00.910Z,0.20
2022-11-28T18:39:33.230Z,0.10
2022-11-28T18:42:01.500Z,0.20
2022-11-28T18:44:29.709Z,0.20
2022-11-28T18:46:57.929Z,0.20
2022-11-28T18:49:27.188Z,0.20
2022-11-28T18:51:57.870Z,0.20
2022-11-28T18:54:26.770Z,0.20
2022-11-28T18:56:54.794Z,0.20
2022-11-28T18:59:23.964Z,0.13
2022-11-28T19:01:53.199Z,0.20
2022-11-28T19:04:21.355Z,0.20
2022-11-28T19:06:50.581Z,0.20
2022-11-28T19:09:20.690Z,0.20
2022-11-28T19:11:49.141Z,0.20
2022-11-28T19:14:21.215Z,0.20
2022-11-28T19:16:49.724Z,0.20
2022-11-28T19:19:19.390Z,0.20
2022-11-28T19:21:49.925Z,0.20
2022-11-28T19:24:19.663Z,0.10
2022-11-28T19:26:47.862Z,0.20
2022-11-28T19:29:16.592Z,0.20
2022-11-28T19:31:44.762Z,0.20
2022-11-28T19:34:15.055Z,0.20
2022-11-28T19:36:46.907Z,0.10
2022-11-28T19:39:17.978Z,0.20
2022-11-28T19:41:47.944Z,0.20
2022-11-28T19:44:16.620Z,0.10
2022-11-28T19:46:45.701Z,0.20
2022-11-28T19:49:18.503Z,0.10
2022-11-28T19:51:47.187Z,0.20
2022-11-28T19:54:15.820Z,0.15
2022-11-28T19:56:44.466Z,0.20
2022-11-28T19:59:14.177Z,0.20
2022-11-28T20:01:42.542Z,0.20
2022-11-28T20:04:11.410Z,0.20
2022-11-28T20:06:39.929Z,0.20
2022-11-28T20:09:13.728Z,0.13
2022-11-28T20:11:44.998Z,0.20
2022-11-28T20:14:17.648Z,0.20
2022-11-28T20:16:46.870Z,0.10
2022-11-28T20:19:17.787Z,0.20
2022-11-28T20:21:46.742Z,0.20
2022-11-28T20:24:15.887Z,0.20
2022-11-28T20:26:46.171Z,0.20
2022-11-28T20:29:18.060Z,0.20
2022-11-28T20:31:48.451Z,0.10
2022-11-28T20:34:18.667Z,0.10
2022-11-28T20:36:52.772Z,0.20
2022-11-28T20:39:21.362Z,0.10
2022-11-28T20:41:49.592Z,0.20
2022-11-28T20:44:20.070Z,0.10
2022-11-28T20:46:49.891Z,0.20
2022-11-28T20:49:18.351Z,0.20
2022-11-28T20:51:46.718Z,0.20
2022-11-28T20:54:15.405Z,0.20
2022-11-28T20:57:19.773Z,0.20
2022-11-28T20:59:34.617Z,0.20
2022-11-28T21:02:02.693Z,0.20
2022-11-28T21:04:30.930Z,0.20
2022-11-28T21:06:59.174Z,0.20
2022-11-28T21:09:27.426Z,0.22
2022-11-28T21:11:58.969Z,0.10
2022-11-28T21:14:28.278Z,0.20
2022-11-28T21:16:58.655Z,0.20
2022-11-28T21:19:27.454Z,0.20
2022-11-28T21:21:55.564Z,0.20
2022-11-28T21:24:23.609Z,0.20
2022-11-28T21:26:54.531Z,0.20
2022-11-28T21:29:24.665Z,0.20
2022-11-28T21:31:52.828Z,0.20
2022-11-28T21:34:22.877Z,0.20
2022-11-28T21:36:51.090Z,0.20
2022-11-28T21:39:21.899Z,0.20
2022-11-28T21:41:51.039Z,0.20
2022-11-28T21:44:19.175Z,0.20
2022-11-28T21:46:47.413Z,0.20
2022-11-28T21:49:15.707Z,0.20
2022-11-28T21:51:45.144Z,0.20
2022-11-28T21:54:13.464Z,0.10
2022-11-28T21:56:41.905Z,0.20
2022-11-28T21:59:10.203Z,0.20
2022-11-28T22:01:39.037Z,0.20
2022-11-28T22:04:07.663Z,0.20
2022-11-28T22:06:35.935Z,0.10
2022-11-28T22:09:09.406Z,0.20
2022-11-28T22:11:39.560Z,0.25
2022-11-28T22:14:07.944Z,0.10
2022-11-28T22:16:36.711Z,0.20
2022-11-28T22:19:05.672Z,0.20
2022-11-28T22:21:54.133Z,0.20
2022-11-28T22:24:25.582Z,0.20
2022-11-28T22:26:55.897Z,0.20
2022-11-28T22:29:24.977Z,0.20
2022-11-28T22:31:54.690Z,0.20
2022-11-28T22:34:23.930Z,0.20
2022-11-28T22:36:52.271Z,0.20
2022-11-28T22:39:21.979Z,0.20
2022-11-28T22:41:51.735Z,0.20
2022-11-28T22:44:21.731Z,0.20
2022-11-28T22:46:50.135Z,0.20
2022-11-28T22:49:19.890Z,0.10
2022-11-28T22:51:48.662Z,0.20
2022-11-28T22:54:17.003Z,0.17
2022-11-28T22:56:45.029Z,0.10
2022-11-28T22:59:17.289Z,0.20
2022-11-28T23:01:45.347Z,0.20
2022-11-28T23:04:13.783Z,0.10
2022-11-28T23:06:43.089Z,0.10
2022-11-28T23:09:14.484Z,0.10
2022-11-28T23:11:43.083Z,0.10
2022-11-28T23:14:15.296Z,0.20
2022-11-28T23:16:45.172Z,0.20
2022-11-28T23:19:16.044Z,0.17
2022-11-28T23:21:46.801Z,0.15
2022-11-28T23:24:16.987Z,0.20
2022-11-28T23:26:47.093Z,0.20
2022-11-28T23:29:17.276Z,0.20
2022-11-28T23:31:47.649Z,0.20
2022-11-28T23:34:16.066Z,0.20
2022-11-28T23:36:46.347Z,0.10
2022-11-28T23:39:16.658Z,0.20
2022-11-28T23:41:45.039Z,0.20
2022-11-28T23:44:14.115Z,0.20
2022-11-28T23:46:44.102Z,0.15
2022-11-28T23:49:12.853Z,0.10
2022-11-28T23:51:41.509Z,0.20
2022-11-28T23:54:10.719Z,0.10
2022-11-28T23:56:40.138Z,0.20
2022-11-28T23:59:10.698Z,0.20
